Logo AVAMET
Benvolgut visitant, si us plau, ingressa Recuperar contrasenya

Inforatge Castelló de la Plana Centre Urban

Dades diàries. Acumulats / Últims 30 dies disponibles

Data Temperatura (°C) Humitat rel. (%) Pressió rel. (hPa) Vent (km/h) Precipitació
Mínima Mitjana Màxima Amplitud
tèrmica
Mínima Mitjana Màxima Mínima Mitjana Màxima Predom. Mitjana Ràfega
màxima
Total
(mm)
Índex-n
Mínima Mitjana Màxima Mínima Mitjana Màxima n
0 a 1
P0 max
mm 5'
Dades mensuals acumulades fins l'últim dia disponible
11/2019 4,6 10,3 17,9 14,8 15,3 19,8 28,2 23,6 29 56 91 999 1.011 1.022   6,3 57,9 4,2
Dades anuals acumulades fins l'últim dia disponible
2019 0,7 13,5 25,0 18,3 12,6 23,0 36,9 36,2 18 67 97 991 1.018 1.037   5,6 79,6 220,6
Últims 30 dies disponibles
21-11-2019 6,8     12,4     17,7 10,9 47 68 84 1.008 1.009 1.011 SO 4,4 25,7 0,0
20-11-2019 5,9     10,4     15,7 9,8 57 71 77 1.010 1.013 1.017 W 3,5 24,1 0,0
19-11-2019 5,2     10,0     15,7 10,5 37 55 76 1.016 1.017 1.019 W 5,3 20,9 0,0
18-11-2019 7,6     12,1     16,2 8,6 38 57 83 1.008 1.012 1.017 WNW 4,8 33,8 0,0
17-11-2019 5,8     12,3     18,7 12,9 40 55 69 1.009 1.012 1.015 W 5,5 37,0 0,0
16-11-2019 4,6     9,6     15,3 10,7 40 62 77 1.007 1.012 1.015 W 4,0 20,9 0,0
15-11-2019 8,3     11,3     16,1 7,8 40 55 71 1.000 1.003 1.007 W 4,7 20,9 0,0
14-11-2019 8,7     12,2     16,8 8,1 41 63 86 999 1.002 1.010 W 5,6 37,0 0,0
13-11-2019 10,5     13,9     19,8 9,3 40 71 91 1.005 1.009 1.012 W 1,8 20,9 4,0 0,32 0,40
12-11-2019 11,9     15,4     20,2 8,3 35 44 69 1.010 1.012 1.013 WNW 6,6 45,1 0,2
11-11-2019 9,7     13,9     18,8 9,1 38 50 63 1.011 1.014 1.015 W 5,8 46,7 0,0
10-11-2019 11,0     14,0     17,1 6,1 35 44 59 1.011 1.012 1.015 WNW 8,4 57,9 0,0
09-11-2019 12,7     15,5     19,4 6,7 37 46 59 1.013 1.016 1.019 W 7,6 32,2 0,0
08-11-2019 10,2     14,3     18,9 8,7 30 43 52 1.009 1.012 1.016 W 10,9 46,7 0,0
07-11-2019 8,9     15,4     23,1 14,2 36 57 73 1.007 1.009 1.013 W 7,1 35,4 0,0
06-11-2019 10,3     15,8     22,3 12,0 34 52 71 1.012 1.013 1.014 W 4,2 32,2 0,0
05-11-2019 13,4     17,9     21,2 7,8 35 49 63 1.005 1.008 1.012 W 11,6 51,5 0,0
04-11-2019 15,5     20,2     25,1 9,6 42 54 71 1.006 1.008 1.010 SW 8,9 41,8 0,0
03-11-2019 15,9     20,9     24,6 8,7 29 47 65 999 1.004 1.010 WNW 11,6 56,3 0,0
02-11-2019 17,9     22,1     28,2 10,3 40 62 79 1.004 1.008 1.014 W 6,1 37,0 0,0
01-11-2019 15,7     20,7     25,8 10,1 57 70 82 1.013 1.017 1.022 W 2,9 14,5 0,0
31-10-2019 16,2     20,5     26,8 10,6 48 69 84 1.020 1.021 1.023 SO 2,9 19,3 0,0
30-10-2019 13,8     18,7     23,7 9,9 61 79 91 1.020 1.021 1.023 W 2,9 17,7 0,0
29-10-2019 12,8     17,4     22,1 9,3 76 87 94 1.016 1.018 1.021 W 2,6 14,5 0,0
28-10-2019 13,4     16,7     20,9 7,5 74 86 93 1.018 1.019 1.022 W 1,3 9,7 0,2
27-10-2019 13,8     17,4     22,1 8,3 69 84 94 1.022 1.023 1.024 W 2,7 24,1 0,0
26-10-2019 11,5     17,0     21,5 10,0 65 80 90 1.022 1.023 1.024 W 3,9 19,3 0,0
25-10-2019 12,3     17,7     23,5 11,2 49 66 81 1.022 1.023 1.024 W 5,0 19,3 0,0
24-10-2019 9,7     15,3     21,9 12,2 48 66 81 1.011 1.016 1.023 W 5,5 29,0 0,0
23-10-2019 9,9     14,9     21,1 11,2 43 74 94 1.005 1.008 1.011 W 5,0 29,0 0,2
Últims 13 mesos disponibles
10/2019 9,7 15,0 19,6 19,4 17,1 24,0 28,4 18,7 50 73 87 1.008 1.018 1.023 W 4,3 49,9 20,2
09/2019 15,0 19,4 22,2 23,3 21,6 27,2 31,3 16,3 52 73 84 1.011 1.019 1.027 S 5,5 55,6 62,8
08/2019 17,7 21,4 25,0 25,8 25,9 29,8 32,9 15,2 55 73 81 1.012 1.018 1.022 SSE 5,1 44,4 38,0
07/2019 19,6 21,4 24,1 26,3 27,5 30,2 34,5 14,9 50 67 78 1.007 1.016 1.023 SSE 5,4 35,4 11,4
06/2019 10,7 17,0 20,6 22,1 21,0 26,4 36,9 26,2 42 65 80 1.009 1.017 1.024 SE 5,8 55,6 0,0
05/2019 8,3 13,2 16,6 17,8 17,9 22,2 28,2 19,9 52 69 82 1.006 1.017 1.026 SSO 5,8 48,3 15,8
04/2019 6,6 10,7 13,8 15,1 15,7 19,6 26,8 20,2 46 65 88 1.000 1.014 1.027 SSO 7,5 64,8 55,2
03/2019 4,7 8,2 12,7 13,8 13,1 19,0 25,4 20,7 42 62 82 1.012 1.024 1.031 SSO 5,3 42,6 12,2
02/2019 0,7 5,7 10,8 11,1 13,1 17,1 23,3 22,6 29 68 83 994 1.026 1.035 SSO 5,0 74,1 0,0
01/2019 1,8 4,8 8,6 10,2 12,6 16,3 22,4 20,6 41 62 83 1.001 1.020 1.031 SO 5,6 79,6 0,8
12/2018 3,9 7,5 11,2 12,2 14,1 17,8 24,1 20,2 54 74 88 1.009 1.026 1.031 SO 3,6 63,0 9,0
11/2018 5,9 10,1 16,1 14,0 14,3 18,8 22,6 16,7 57 75 89 1.003 1.016 1.025 SO 4,2 51,9 104,2
10/2018 6,4 13,8 17,9 18,1 15,1 22,5 28,0 21,6 41 71 88 1.000 1.016 1.027 SSO 5,0 56,3 163,0
Tots els anys disponibles
Temperatura (°C)
Humitat relativa (%)
Velocitat del vent i ràfega màxima (km/h)
Direcció del vent (°)
Pressió (hPa)
Precipitació (mm)
Nota sobre les dades: s'avisa a l'usuari de la provisionalitat i no oficialitat d'aquestes dades
Logo AVAMET blanc
Web allotjada a Sollutia
Llicència de Creative CommonsLa web d'AVAMET i els seus continguts estan subjectes a una llicència de
Reconeixement - No Comercial - Compartir igual
Últimes estacions: Faura (Inforatge), Benifairó de les Valls (Inforatge), Xàbia - Les Valls (Soci), Xàbia - Alt de la Granadella (Soci), Villena - Sierra de Salinas (Soci), Sueca - Centre (Inforatge) - - -